createdAt,value
2019-01-05T00:00:38.822Z,89.63
2019-01-05T00:02:56.838Z,72.87
2019-01-05T00:05:32.877Z,69.70
2019-01-05T00:07:57.767Z,66.20
2019-01-05T00:10:22.268Z,64.80
2019-01-05T00:12:48.344Z,51.73
2019-01-05T00:15:13.839Z,73.10
2019-01-05T00:17:38.584Z,98.07
2019-01-05T00:20:20.576Z,69.27
2019-01-05T00:22:46.276Z,65.63
2019-01-05T00:25:11.051Z,53.33
2019-01-05T00:27:35.863Z,77.93
2019-01-05T00:32:49.722Z,54.53
2019-01-05T00:38:20.107Z,37.63
2019-01-05T00:40:48.607Z,59.93
2019-01-05T00:43:25.187Z,55.80
2019-01-05T00:45:47.881Z,53.27
2019-01-05T00:48:33.851Z,63.03
2019-01-05T00:51:04.944Z,46.73
2019-01-05T00:53:34.184Z,49.63
2019-01-05T00:56:17.709Z,32.37
2019-01-05T00:58:48.934Z,59.43
2019-01-05T01:01:14.435Z,69.23
2019-01-05T01:03:39.091Z,71.40
2019-01-05T01:06:03.723Z,63.70
2019-01-05T01:08:26.455Z,74.37
2019-01-05T01:10:51.251Z,50.13
2019-01-05T01:16:04.595Z,66.90
2019-01-05T01:18:31.249Z,59.40
2019-01-05T01:20:56.706Z,72.47
2019-01-05T01:23:26.570Z,59.77
2019-01-05T01:26:13.128Z,46.70
2019-01-05T01:28:38.098Z,42.07
2019-01-05T01:31:02.993Z,49.30
2019-01-05T01:33:39.741Z,41.07
2019-01-05T01:36:23.562Z,45.27
2019-01-05T01:38:59.232Z,54.10
2019-01-05T01:41:31.774Z,59.87
2019-01-05T01:44:06.463Z,39.43
2019-01-05T01:46:34.411Z,39.70
2019-01-05T01:48:55.022Z,26.00
2019-01-05T01:51:43.025Z,29.40
2019-01-05T01:54:26.717Z,37.33
2019-01-05T01:57:01.145Z,44.13
2019-01-05T01:59:38.204Z,31.97
2019-01-05T02:02:57.807Z,33.83
2019-01-05T02:08:02.081Z,23.40
2019-01-05T02:10:29.813Z,28.77
2019-01-05T02:12:53.617Z,40.10
2019-01-05T02:18:32.938Z,32.03
2019-01-05T02:24:14.055Z,26.90
2019-01-05T02:27:16.664Z,29.67
2019-01-05T02:29:39.930Z,19.97
2019-01-05T02:32:53.470Z,30.20
2019-01-05T02:36:09.220Z,22.43
2019-01-05T02:39:24.406Z,22.27
2019-01-05T02:42:36.349Z,32.40
2019-01-05T02:46:00.733Z,26.27
2019-01-05T02:49:08.566Z,21.13
2019-01-05T02:52:07.477Z,22.03
2019-01-05T02:55:10.078Z,9.43
2019-01-05T02:58:35.332Z,17.60
2019-01-05T03:01:55.348Z,20.47
2019-01-05T03:05:04.315Z,23.37
2019-01-05T03:08:34.919Z,27.97
2019-01-05T03:11:46.000Z,21.60
2019-01-05T03:15:00.763Z,21.77
2019-01-05T03:17:58.652Z,37.53
2019-01-05T03:21:17.797Z,17.07
2019-01-05T03:23:59.768Z,19.33
2019-01-05T03:27:20.695Z,18.03
2019-01-05T03:34:23.132Z,19.70
2019-01-05T03:37:54.984Z,14.67
2019-01-05T03:47:05.772Z,16.37
2019-01-05T03:50:40.921Z,9.00
2019-01-05T03:53:24.482Z,9.23
2019-01-05T03:59:26.875Z,16.50
2019-01-05T04:05:42.345Z,13.20
2019-01-05T04:08:54.630Z,28.80
2019-01-05T04:12:23.729Z,13.40
2019-01-05T04:15:45.725Z,20.37
2019-01-05T04:19:01.083Z,14.50
2019-01-05T04:22:11.333Z,15.70
2019-01-05T04:25:35.753Z,13.93
2019-01-05T04:28:56.017Z,18.17
2019-01-05T04:31:52.011Z,8.67
2019-01-05T04:38:34.306Z,8.30
2019-01-05T04:41:50.167Z,22.10
2019-01-05T04:45:10.726Z,16.43
2019-01-05T04:48:32.640Z,12.10
2019-01-05T04:51:56.331Z,8.40
2019-01-05T04:55:11.993Z,11.57
2019-01-05T04:57:54.562Z,11.03
2019-01-05T05:01:00.266Z,11.30
2019-01-05T05:04:27.665Z,18.03
2019-01-05T05:07:44.207Z,14.60
2019-01-05T05:11:03.181Z,13.10
2019-01-05T05:14:29.933Z,11.97
2019-01-05T05:17:05.348Z,14.10
2019-01-05T05:20:27.971Z,8.97
2019-01-05T05:23:57.637Z,8.80
2019-01-05T05:27:27.980Z,6.67
2019-01-05T05:30:55.720Z,4.40
2019-01-05T05:37:32.999Z,12.63
2019-01-05T05:41:05.203Z,12.27
2019-01-05T05:47:24.767Z,14.37
2019-01-05T05:50:55.762Z,10.73
2019-01-05T05:54:17.145Z,10.03
2019-01-05T06:04:47.958Z,11.10
2019-01-05T06:08:09.642Z,9.37
2019-01-05T06:11:27.627Z,12.33
2019-01-05T06:14:48.199Z,9.23
2019-01-05T06:17:56.256Z,7.97
2019-01-05T06:20:45.920Z,7.00
2019-01-05T06:24:08.933Z,9.93
2019-01-05T06:27:51.611Z,13.37
2019-01-05T06:34:13.107Z,10.47
2019-01-05T06:37:34.607Z,6.37
2019-01-05T06:40:54.709Z,19.47
2019-01-05T06:44:22.790Z,4.70
2019-01-05T06:47:18.430Z,3.00
2019-01-05T06:50:51.256Z,12.97
2019-01-05T06:54:00.013Z,8.67
2019-01-05T06:57:11.496Z,5.00
2019-01-05T06:59:55.325Z,7.43
2019-01-05T07:03:16.684Z,6.80
2019-01-05T07:06:13.854Z,6.70
2019-01-05T07:09:33.844Z,5.23
2019-01-05T07:13:07.178Z,5.13
2019-01-05T07:19:49.939Z,3.10
2019-01-05T07:22:47.513Z,5.20
2019-01-05T07:26:09.615Z,4.83
2019-01-05T07:29:46.818Z,4.20
2019-01-05T07:33:09.434Z,5.50
2019-01-05T07:36:33.315Z,3.30
2019-01-05T07:43:29.873Z,5.57
2019-01-05T07:46:51.816Z,5.40
2019-01-05T07:50:04.218Z,7.83
2019-01-05T07:53:19.237Z,2.33
2019-01-05T08:00:34.687Z,2.50
2019-01-05T08:03:44.200Z,10.17
2019-01-05T08:06:48.651Z,3.30
2019-01-05T08:09:56.427Z,3.13
2019-01-05T08:13:18.366Z,3.90
2019-01-05T08:16:37.376Z,2.13
2019-01-05T08:19:57.476Z,6.63
2019-01-05T08:29:26.276Z,3.73
2019-01-05T08:32:40.613Z,3.27
2019-01-05T08:36:07.276Z,8.33
2019-01-05T08:39:43.463Z,6.10
2019-01-05T08:43:07.271Z,11.80
2019-01-05T08:49:33.704Z,4.97
2019-01-05T08:52:39.670Z,5.93
2019-01-05T08:56:07.352Z,7.33
2019-01-05T08:59:29.689Z,5.80
2019-01-05T09:03:17.083Z,10.50
2019-01-05T09:06:43.140Z,2.40
2019-01-05T09:09:44.747Z,13.60
2019-01-05T09:13:19.017Z,1.73
2019-01-05T09:20:15.379Z,3.77
2019-01-05T09:27:20.750Z,12.70
2019-01-05T09:30:44.085Z,5.17
2019-01-05T09:33:38.242Z,6.10
2019-01-05T09:37:12.947Z,1.40
2019-01-05T09:40:15.177Z,6.23
2019-01-05T09:43:42.826Z,7.80
2019-01-05T09:47:02.910Z,5.87
2019-01-05T09:53:08.420Z,14.87
2019-01-05T09:56:34.323Z,12.23
2019-01-05T09:59:49.851Z,9.93
2019-01-05T10:03:12.710Z,12.57
2019-01-05T10:06:43.665Z,4.23
2019-01-05T10:13:16.473Z,4.30
2019-01-05T10:19:08.305Z,5.83
2019-01-05T10:25:09.226Z,8.97
2019-01-05T10:32:18.403Z,5.27
2019-01-05T10:35:42.740Z,8.90
2019-01-05T10:38:44.512Z,6.77
2019-01-05T10:45:19.357Z,7.53
2019-01-05T10:52:02.497Z,3.60
2019-01-05T10:55:26.451Z,10.30
2019-01-05T10:58:55.529Z,4.53
2019-01-05T11:05:20.273Z,4.97
2019-01-05T11:08:42.615Z,3.47
2019-01-05T11:15:31.822Z,5.17
2019-01-05T11:18:57.935Z,2.53
2019-01-05T11:22:19.015Z,7.20
2019-01-05T11:25:48.348Z,8.83
2019-01-05T11:29:20.749Z,7.47
2019-01-05T11:32:50.822Z,4.33
2019-01-05T11:36:10.405Z,3.20
2019-01-05T11:39:43.217Z,8.30
2019-01-05T11:43:00.821Z,3.10
2019-01-05T11:46:35.695Z,9.13
2019-01-05T11:50:10.397Z,3.10
2019-01-05T11:53:22.419Z,3.37
2019-01-05T11:56:59.026Z,8.60
2019-01-05T12:00:15.192Z,7.47
2019-01-05T12:04:05.482Z,11.17
2019-01-05T12:07:51.056Z,3.97
2019-01-05T12:11:59.971Z,6.00
2019-01-05T12:15:38.285Z,7.97
2019-01-05T12:19:18.722Z,6.03
2019-01-05T12:23:06.597Z,5.43
2019-01-05T12:26:54.285Z,8.27
2019-01-05T12:30:23.976Z,5.83
2019-01-05T12:33:45.525Z,16.80
2019-01-05T12:36:56.558Z,10.33
2019-01-05T12:40:23.286Z,5.40
2019-01-05T12:44:07.626Z,7.37
2019-01-05T12:47:43.759Z,11.57
2019-01-05T12:51:23.351Z,7.53
2019-01-05T12:55:10.344Z,9.00
2019-01-05T12:58:24.557Z,7.83
2019-01-05T13:02:05.473Z,6.40
2019-01-05T13:05:30.428Z,6.50
2019-01-05T13:09:09.537Z,4.13
2019-01-05T13:12:45.620Z,10.40
2019-01-05T13:16:01.833Z,7.57
2019-01-05T13:19:44.781Z,6.13
2019-01-05T13:22:42.598Z,5.50
2019-01-05T13:26:07.489Z,8.10
2019-01-05T13:29:23.729Z,9.67
2019-01-05T13:33:10.553Z,3.77
2019-01-05T13:36:44.684Z,5.67
2019-01-05T13:40:09.810Z,4.07
2019-01-05T13:44:05.723Z,7.43
2019-01-05T13:47:43.352Z,6.10
2019-01-05T13:50:57.517Z,8.20
2019-01-05T13:53:38.509Z,8.63
2019-01-05T13:56:27.429Z,9.37
2019-01-05T13:58:51.896Z,2.27
2019-01-05T14:01:19.740Z,4.73
2019-01-05T14:03:43.248Z,4.63
2019-01-05T14:06:07.790Z,2.07
2019-01-05T14:08:30.927Z,5.57
2019-01-05T14:11:03.984Z,6.53
2019-01-05T14:13:28.982Z,5.20
2019-01-05T14:15:56.673Z,5.77
2019-01-05T14:18:20.271Z,4.87
2019-01-05T14:20:56.937Z,5.07
2019-01-05T14:23:20.206Z,2.67
2019-01-05T14:25:47.863Z,5.60
2019-01-05T14:28:21.340Z,9.47
2019-01-05T14:31:01.960Z,4.50
2019-01-05T14:33:26.110Z,3.27
2019-01-05T14:35:45.673Z,8.70
2019-01-05T14:38:09.742Z,9.23
2019-01-05T14:40:40.107Z,6.20
2019-01-05T14:43:03.187Z,7.33
2019-01-05T14:45:33.810Z,7.47
2019-01-05T14:48:01.200Z,6.97
2019-01-05T14:50:31.382Z,3.43
2019-01-05T14:52:56.186Z,4.83
2019-01-05T14:55:29.486Z,2.97
2019-01-05T14:57:52.725Z,3.87
2019-01-05T15:00:20.485Z,3.70
2019-01-05T15:02:58.539Z,4.50
2019-01-05T15:05:21.603Z,8.10
2019-01-05T15:07:42.324Z,11.70
2019-01-05T15:10:06.154Z,9.93
2019-01-05T15:12:53.121Z,13.57
2019-01-05T15:15:16.410Z,7.13
2019-01-05T15:17:46.556Z,4.20
2019-01-05T15:20:10.274Z,5.07
2019-01-05T15:22:40.644Z,7.90
2019-01-05T15:25:17.594Z,7.17
2019-01-05T15:27:57.404Z,2.60
2019-01-05T15:30:37.237Z,5.00
2019-01-05T15:33:01.345Z,5.13
2019-01-05T15:35:29.746Z,6.10
2019-01-05T15:38:02.998Z,5.13
2019-01-05T15:40:27.010Z,7.23
2019-01-05T15:42:54.786Z,27.47
2019-01-05T15:45:37.574Z,3.20
2019-01-05T15:48:06.440Z,3.97
2019-01-05T15:50:31.471Z,9.17
2019-01-05T15:52:55.971Z,6.33
2019-01-05T15:55:32.840Z,3.23
2019-01-05T15:58:07.267Z,8.37
2019-01-05T16:00:36.566Z,10.50
2019-01-05T16:03:00.488Z,3.77
2019-01-05T16:05:31.377Z,14.50
2019-01-05T16:08:08.926Z,3.20
2019-01-05T16:10:44.294Z,5.57
2019-01-05T16:13:08.770Z,5.90
2019-01-05T16:15:33.540Z,7.17
2019-01-05T16:17:58.458Z,7.27
2019-01-05T16:20:35.360Z,6.70
2019-01-05T16:22:59.597Z,17.90
2019-01-05T16:25:35.351Z,7.97
2019-01-05T16:28:01.051Z,12.20
2019-01-05T16:30:28.769Z,12.97
2019-01-05T16:32:58.396Z,3.40
2019-01-05T16:35:22.359Z,8.93
2019-01-05T16:37:50.377Z,9.30
2019-01-05T16:40:13.332Z,12.07
2019-01-05T16:42:38.554Z,9.70
2019-01-05T16:45:16.934Z,7.13
2019-01-05T16:47:44.322Z,8.03
2019-01-05T16:50:26.795Z,14.70
2019-01-05T16:52:54.392Z,13.10
2019-01-05T16:55:17.365Z,10.97
2019-01-05T16:57:43.840Z,9.00
2019-01-05T17:00:07.041Z,9.80
2019-01-05T17:02:46.761Z,9.67
2019-01-05T17:05:09.627Z,11.80
2019-01-05T17:07:35.284Z,9.73
2019-01-05T17:10:00.795Z,18.03
2019-01-05T17:12:29.331Z,11.20
2019-01-05T17:15:17.769Z,9.20
2019-01-05T17:17:52.810Z,21.63
2019-01-05T17:20:34.249Z,13.07
2019-01-05T17:23:11.322Z,7.87
2019-01-05T17:25:36.292Z,8.23
2019-01-05T17:27:59.515Z,18.33
2019-01-05T17:30:23.215Z,9.70
2019-01-05T17:33:00.025Z,16.37
2019-01-05T17:35:33.176Z,8.60
2019-01-05T17:38:01.613Z,15.97
2019-01-05T17:40:32.214Z,19.43
2019-01-05T17:42:55.622Z,8.27
2019-01-05T17:45:26.577Z,10.30
2019-01-05T17:47:49.940Z,11.63
2019-01-05T17:50:18.979Z,17.43
2019-01-05T17:52:42.187Z,9.57
2019-01-05T17:55:06.805Z,10.93
2019-01-05T17:57:30.560Z,11.07
2019-01-05T17:59:47.921Z,8.43
2019-01-05T18:02:10.969Z,15.17
2019-01-05T18:04:34.420Z,14.27
2019-01-05T18:07:04.782Z,7.47
2019-01-05T18:09:38.192Z,9.93
2019-01-05T18:12:01.727Z,6.37
2019-01-05T18:14:18.227Z,14.83
2019-01-05T18:16:55.396Z,12.67
2019-01-05T18:19:29.452Z,12.70
2019-01-05T18:22:12.427Z,16.93
2019-01-05T18:24:48.957Z,12.00
2019-01-05T18:27:23.888Z,20.87
2019-01-05T18:29:57.477Z,8.53
2019-01-05T18:32:20.792Z,9.57
2019-01-05T18:34:45.283Z,13.47
2019-01-05T18:37:14.797Z,13.40
2019-01-05T18:39:43.220Z,14.47
2019-01-05T18:42:08.712Z,8.53
2019-01-05T18:44:44.396Z,9.83
2019-01-05T18:47:08.156Z,8.40
2019-01-05T18:49:35.693Z,17.30
2019-01-05T18:52:01.761Z,17.63
2019-01-05T18:54:30.242Z,15.90
2019-01-05T18:56:54.989Z,10.60
2019-01-05T18:59:32.620Z,14.53
2019-01-05T19:01:55.748Z,10.43
2019-01-05T19:04:33.634Z,12.83
2019-01-05T19:07:02.379Z,9.57
2019-01-05T19:09:32.868Z,16.07
2019-01-05T19:12:08.957Z,13.30
2019-01-05T19:14:40.561Z,9.77
2019-01-05T19:17:05.357Z,13.80
2019-01-05T19:19:36.475Z,11.10
2019-01-05T19:22:04.481Z,10.50
2019-01-05T19:24:43.592Z,12.83
2019-01-05T19:27:08.689Z,11.17
2019-01-05T19:29:32.242Z,15.40
2019-01-05T19:32:10.362Z,10.03
2019-01-05T19:34:47.454Z,17.47
2019-01-05T19:37:10.894Z,19.47
2019-01-05T19:39:42.003Z,8.67
2019-01-05T19:42:06.861Z,21.57
2019-01-05T19:44:50.629Z,17.80
2019-01-05T19:47:14.533Z,12.03
2019-01-05T19:49:37.866Z,13.13
2019-01-05T19:52:01.207Z,14.17
2019-01-05T19:54:24.927Z,18.40
2019-01-05T19:57:02.294Z,10.10
2019-01-05T19:59:25.824Z,11.63
2019-01-05T20:01:51.044Z,15.17
2019-01-05T20:04:37.189Z,17.07
2019-01-05T20:07:00.817Z,17.00
2019-01-05T20:09:25.734Z,11.50
2019-01-05T20:12:03.378Z,22.03
2019-01-05T20:14:27.919Z,19.00
2019-01-05T20:16:52.639Z,21.20
2019-01-05T20:19:17.241Z,14.87
2019-01-05T20:21:41.152Z,15.83
2019-01-05T20:24:14.385Z,14.73
2019-01-05T20:26:48.525Z,13.10
2019-01-05T20:29:12.692Z,9.40
2019-01-05T20:31:37.073Z,27.27
2019-01-05T20:34:08.086Z,37.03
2019-01-05T20:36:35.645Z,21.27
2019-01-05T20:39:15.557Z,14.00
2019-01-05T20:41:46.013Z,26.40
2019-01-05T20:44:14.600Z,20.70
2019-01-05T20:46:44.112Z,17.07
2019-01-05T20:49:23.659Z,13.20
2019-01-05T20:51:59.192Z,13.97
2019-01-05T20:54:33.391Z,21.60
2019-01-05T20:56:58.458Z,18.70
2019-01-05T20:59:21.514Z,11.70
2019-01-05T21:01:51.655Z,15.60
2019-01-05T21:04:16.126Z,12.33
2019-01-05T21:06:53.683Z,8.47
2019-01-05T21:09:14.531Z,13.50
2019-01-05T21:11:50.592Z,19.70
2019-01-05T21:14:15.642Z,11.90
2019-01-05T21:16:46.701Z,14.70
2019-01-05T21:19:10.239Z,13.83
2019-01-05T21:21:31.690Z,20.00
2019-01-05T21:23:59.365Z,20.73
2019-01-05T21:26:24.705Z,15.10
2019-01-05T21:47:48.823Z,14.60
2019-01-05T21:50:06.751Z,28.30
2019-01-05T21:55:22.288Z,19.30
2019-01-05T21:57:47.483Z,15.03
2019-01-05T22:00:11.972Z,16.77
2019-01-05T22:02:36.449Z,10.13
2019-01-05T22:05:00.936Z,18.23
2019-01-05T22:07:25.498Z,19.83
2019-01-05T22:09:50.533Z,12.43
2019-01-05T22:12:15.474Z,20.60
2019-01-05T22:14:59.051Z,13.47
2019-01-05T22:17:23.586Z,16.47
2019-01-05T22:19:48.887Z,11.67
2019-01-05T22:22:30.404Z,20.20
2019-01-05T22:24:54.935Z,13.70
2019-01-05T22:27:20.400Z,13.60
2019-01-05T22:29:45.652Z,13.07
2019-01-05T22:32:10.730Z,14.70
2019-01-05T22:34:35.819Z,14.40
2019-01-05T22:37:19.535Z,20.43
2019-01-05T22:39:44.412Z,17.67
2019-01-05T22:42:09.074Z,21.77
2019-01-05T22:44:52.893Z,12.47
2019-01-05T22:47:18.011Z,20.60
2019-01-05T22:49:54.565Z,10.00
2019-01-05T22:52:38.534Z,14.00
2019-01-05T22:55:20.366Z,12.93
2019-01-05T22:57:44.928Z,8.50
2019-01-05T23:00:24.417Z,15.00
2019-01-05T23:03:08.280Z,18.60
2019-01-05T23:05:47.239Z,17.37
2019-01-05T23:08:12.429Z,14.63
2019-01-05T23:10:56.075Z,16.07
2019-01-05T23:13:32.623Z,18.30
2019-01-05T23:15:57.704Z,15.70
2019-01-05T23:18:37.086Z,20.33
2019-01-05T23:21:02.998Z,7.93
2019-01-05T23:23:50.291Z,10.40
2019-01-05T23:26:34.236Z,6.40
2019-01-05T23:29:02.283Z,9.93
2019-01-05T23:31:45.999Z,14.20
2019-01-05T23:34:06.842Z,13.83
2019-01-05T23:36:50.750Z,10.00
2019-01-05T23:39:15.758Z,7.57
2019-01-05T23:42:02.164Z,12.90
2019-01-05T23:44:46.133Z,12.20
2019-01-05T23:47:11.157Z,21.40
2019-01-05T23:49:51.101Z,16.13
2019-01-05T23:52:15.994Z,8.50
2019-01-05T23:54:43.520Z,15.90
2019-01-05T23:57:09.986Z,12.83
2019-01-05T23:59:37.650Z,8.70
